Impacts TAF Board
For situational awareness. Not to be used for flight planning purposes.
IDs:

KMGW - Morgantown Muni, WV, US

Issued at 1904 UTC 02 Oct 2022
Updated at 1906 UTC 02 Oct 2022
Potential Impact None Slight Moderate High
Time1900Z 02/20Z 02/21Z 02/22Z 02/23Z 03/00Z 03/01Z 03/02Z 03/03Z 03/04Z 03/05Z 03/06Z 03/07Z 03/08Z>>
Type OBS PRVL PRVL PRVL PRVL PRVL PRVL PRVL PRVL PRVL PRVL PRVL PRVL PRVL
VIS 4 3 >6 >6 >6 >6 >6 >6 >6 >6 >6 >6 >6 >6
CIG 7 7 10 10 20 20 35 35 -- -- -- -- -- --
Cover OVC OVC OVC OVC BKN BKN BKN BKN SKC SKC SKC SKC SKC SKC
FltCat IFR IFR MVFR MVFR MVFR MVFR VFR VFR VFR VFR VFR VFR VFR VFR
WX BR BR -- -- -- -- -- -- -- -- -- -- -- --
WDir 360 20 20 20 30 30 20 20 30 30 30 30 30 30
WSpd 6 8 8 8 6 6 5 5 4 4 4 4 4 4
WGst -- -- -- -- -- -- -- -- -- -- -- -- -- --
WSHgt -- -- -- -- -- -- -- -- -- -- -- -- -- --
WSDir -- -- -- -- -- -- -- -- -- -- -- -- -- --
WSSpd -- -- -- -- -- -- -- -- -- -- -- -- -- --
Raw TAF
KMGW 021904Z 0219/0318 02008KT 3SM BR OVC007
  FM022100 02008KT P6SM OVC010
  FM022300 03006KT P6SM BKN020
  FM030100 02005KT P6SM BKN035
  FM030300 03004KT P6SM SKC


Raw METAR
KMGW 021900Z AUTO 36006KT 4SM BR OVC007 13/11 A3014 RMK AO2 CIG 004V010 T01280111
KMGW 021853Z AUTO 01007KT 2 1/2SM BR OVC007 12/11 A3014 RMK AO2 CIG 004V012 SLP206 T01220111
KMGW 021822Z AUTO 01007KT 3SM BR BKN009 OVC013 12/11 A3014 RMK AO2 CIG 006V011 T01220106
KMGW 021753Z AUTO 36007KT 10SM OVC011 12/11 A3014 RMK AO2 CIG 007V014 SLP206 60007 T01220106 10122 20117
KMGW 021733Z AUTO 01007KT 10SM OVC010 12/11 A3013 RMK AO2 CIG 007V015 T01220111
KMGW 021653Z 01008KT 10SM BR OVC007 12/11 A3012 RMK AO2 CIG 005V009 SLP201 T01170106

METAR Board
Radar Display
Forecast Discussion
For situational awareness. Not to be used for flight planning purposes.